sensor_id;sensor_type;location;lat;lon;timestamp;temperature;humidity
38936;DHT22;66589;47.458;9.644;2023-02-04T00:01:55;5.90;94.40
38936;DHT22;66589;47.458;9.644;2023-02-04T00:04:20;5.80;94.90
38936;DHT22;66589;47.458;9.644;2023-02-04T00:06:46;5.70;94.80
38936;DHT22;66589;47.458;9.644;2023-02-04T00:09:12;5.70;95.60
38936;DHT22;66589;47.458;9.644;2023-02-04T00:11:37;5.60;95.50
38936;DHT22;66589;47.458;9.644;2023-02-04T00:14:03;5.70;95.30
38936;DHT22;66589;47.458;9.644;2023-02-04T00:16:29;5.70;95.70
38936;DHT22;66589;47.458;9.644;2023-02-04T00:18:54;5.70;95.50
38936;DHT22;66589;47.458;9.644;2023-02-04T00:21:20;5.70;95.50
38936;DHT22;66589;47.458;9.644;2023-02-04T00:23:46;5.70;95.70
38936;DHT22;66589;47.458;9.644;2023-02-04T00:26:11;5.70;95.30
38936;DHT22;66589;47.458;9.644;2023-02-04T00:28:37;5.70;95.40
38936;DHT22;66589;47.458;9.644;2023-02-04T00:31:03;5.70;95.40
38936;DHT22;66589;47.458;9.644;2023-02-04T00:33:28;5.70;95.90
38936;DHT22;66589;47.458;9.644;2023-02-04T00:35:54;5.70;96.00
38936;DHT22;66589;47.458;9.644;2023-02-04T00:38:20;5.60;95.90
38936;DHT22;66589;47.458;9.644;2023-02-04T00:40:47;5.70;95.90
38936;DHT22;66589;47.458;9.644;2023-02-04T00:43:13;5.60;96.30
38936;DHT22;66589;47.458;9.644;2023-02-04T00:45:38;5.70;96.20
38936;DHT22;66589;47.458;9.644;2023-02-04T00:48:04;5.70;96.10
38936;DHT22;66589;47.458;9.644;2023-02-04T00:50:30;5.70;95.60
38936;DHT22;66589;47.458;9.644;2023-02-04T00:52:55;5.80;95.90
38936;DHT22;66589;47.458;9.644;2023-02-04T00:55:21;5.80;95.60
38936;DHT22;66589;47.458;9.644;2023-02-04T00:57:47;5.70;95.70
38936;DHT22;66589;47.458;9.644;2023-02-04T01:00:14;5.70;95.90
38936;DHT22;66589;47.458;9.644;2023-02-04T01:02:40;5.80;95.50
38936;DHT22;66589;47.458;9.644;2023-02-04T01:05:07;5.90;95.40
38936;DHT22;66589;47.458;9.644;2023-02-04T01:07:32;5.90;95.20
38936;DHT22;66589;47.458;9.644;2023-02-04T01:09:58;5.90;95.00
38936;DHT22;66589;47.458;9.644;2023-02-04T01:12:24;6.00;95.20
38936;DHT22;66589;47.458;9.644;2023-02-04T01:14:52;6.00;95.20
38936;DHT22;66589;47.458;9.644;2023-02-04T01:17:18;6.00;95.50
38936;DHT22;66589;47.458;9.644;2023-02-04T01:19:44;5.90;96.00
38936;DHT22;66589;47.458;9.644;2023-02-04T01:22:10;5.90;95.90
38936;DHT22;66589;47.458;9.644;2023-02-04T01:24:36;6.00;96.40
38936;DHT22;66589;47.458;9.644;2023-02-04T01:27:02;6.00;96.20
38936;DHT22;66589;47.458;9.644;2023-02-04T01:29:27;5.90;96.10
38936;DHT22;66589;47.458;9.644;2023-02-04T01:31:53;6.00;96.10
38936;DHT22;66589;47.458;9.644;2023-02-04T01:34:19;6.00;96.20
38936;DHT22;66589;47.458;9.644;2023-02-04T01:36:44;6.00;96.20
38936;DHT22;66589;47.458;9.644;2023-02-04T01:39:10;6.00;96.30
38936;DHT22;66589;47.458;9.644;2023-02-04T01:41:36;5.90;96.30
38936;DHT22;66589;47.458;9.644;2023-02-04T01:44:02;5.90;96.00
38936;DHT22;66589;47.458;9.644;2023-02-04T01:46:27;6.00;96.10
38936;DHT22;66589;47.458;9.644;2023-02-04T01:48:53;6.00;96.10
38936;DHT22;66589;47.458;9.644;2023-02-04T01:51:24;6.00;96.40
38936;DHT22;66589;47.458;9.644;2023-02-04T01:53:52;6.00;96.60
38936;DHT22;66589;47.458;9.644;2023-02-04T01:56:21;6.00;96.60
38936;DHT22;66589;47.458;9.644;2023-02-04T01:58:48;6.00;96.20
38936;DHT22;66589;47.458;9.644;2023-02-04T02:01:34;6.10;96.10
38936;DHT22;66589;47.458;9.644;2023-02-04T02:04:00;6.10;96.30
38936;DHT22;66589;47.458;9.644;2023-02-04T02:06:27;6.10;96.20
38936;DHT22;66589;47.458;9.644;2023-02-04T02:08:53;6.20;95.90
38936;DHT22;66589;47.458;9.644;2023-02-04T02:11:19;6.20;95.30
38936;DHT22;66589;47.458;9.644;2023-02-04T02:13:44;6.30;95.20
38936;DHT22;66589;47.458;9.644;2023-02-04T02:16:12;6.40;95.00
38936;DHT22;66589;47.458;9.644;2023-02-04T02:18:37;6.40;95.00
38936;DHT22;66589;47.458;9.644;2023-02-04T02:21:07;6.40;95.30
38936;DHT22;66589;47.458;9.644;2023-02-04T02:26:13;6.30;95.70
38936;DHT22;66589;47.458;9.644;2023-02-04T02:28:39;6.20;96.10
38936;DHT22;66589;47.458;9.644;2023-02-04T02:31:05;6.20;95.90
38936;DHT22;66589;47.458;9.644;2023-02-04T02:33:31;6.20;96.40
38936;DHT22;66589;47.458;9.644;2023-02-04T02:35:57;6.20;96.30
38936;DHT22;66589;47.458;9.644;2023-02-04T02:38:22;6.20;96.40
38936;DHT22;66589;47.458;9.644;2023-02-04T02:40:49;6.20;96.30
38936;DHT22;66589;47.458;9.644;2023-02-04T02:43:26;6.30;96.30
38936;DHT22;66589;47.458;9.644;2023-02-04T02:45:54;6.20;96.30
38936;DHT22;66589;47.458;9.644;2023-02-04T02:48:21;6.20;96.70
38936;DHT22;66589;47.458;9.644;2023-02-04T02:50:47;6.20;96.90
38936;DHT22;66589;47.458;9.644;2023-02-04T02:53:17;6.20;97.00
38936;DHT22;66589;47.458;9.644;2023-02-04T02:55:43;6.10;97.10
38936;DHT22;66589;47.458;9.644;2023-02-04T02:58:19;6.10;97.30
38936;DHT22;66589;47.458;9.644;2023-02-04T03:00:45;6.10;97.60
38936;DHT22;66589;47.458;9.644;2023-02-04T03:03:16;6.10;97.70
38936;DHT22;66589;47.458;9.644;2023-02-04T03:05:45;6.10;97.60
38936;DHT22;66589;47.458;9.644;2023-02-04T03:08:13;6.10;97.80
38936;DHT22;66589;47.458;9.644;2023-02-04T03:10:41;6.10;97.50
38936;DHT22;66589;47.458;9.644;2023-02-04T03:13:07;6.10;97.70
38936;DHT22;66589;47.458;9.644;2023-02-04T03:15:33;6.00;97.90
38936;DHT22;66589;47.458;9.644;2023-02-04T03:17:59;6.00;98.00
38936;DHT22;66589;47.458;9.644;2023-02-04T03:20:27;6.00;97.80
38936;DHT22;66589;47.458;9.644;2023-02-04T03:22:54;6.00;98.00
38936;DHT22;66589;47.458;9.644;2023-02-04T03:25:21;6.00;98.00
38936;DHT22;66589;47.458;9.644;2023-02-04T03:27:52;6.00;98.00
38936;DHT22;66589;47.458;9.644;2023-02-04T03:30:20;6.00;97.80
38936;DHT22;66589;47.458;9.644;2023-02-04T03:32:45;6.00;97.60
38936;DHT22;66589;47.458;9.644;2023-02-04T03:35:11;6.00;97.90
38936;DHT22;66589;47.458;9.644;2023-02-04T03:37:37;6.00;97.80
38936;DHT22;66589;47.458;9.644;2023-02-04T03:40:03;6.10;97.70
38936;DHT22;66589;47.458;9.644;2023-02-04T03:42:29;6.10;97.40
38936;DHT22;66589;47.458;9.644;2023-02-04T03:44:55;6.10;97.30
38936;DHT22;66589;47.458;9.644;2023-02-04T03:47:21;6.20;97.30
38936;DHT22;66589;47.458;9.644;2023-02-04T03:49:46;6.20;97.40
38936;DHT22;66589;47.458;9.644;2023-02-04T03:52:12;6.20;97.10
38936;DHT22;66589;47.458;9.644;2023-02-04T03:54:37;6.30;97.10
38936;DHT22;66589;47.458;9.644;2023-02-04T03:57:03;6.30;96.90
38936;DHT22;66589;47.458;9.644;2023-02-04T03:59:29;6.30;97.00
38936;DHT22;66589;47.458;9.644;2023-02-04T04:01:54;6.30;97.00
38936;DHT22;66589;47.458;9.644;2023-02-04T04:04:20;6.30;97.20
38936;DHT22;66589;47.458;9.644;2023-02-04T04:06:46;6.20;97.00
38936;DHT22;66589;47.458;9.644;2023-02-04T04:09:11;6.20;97.10
38936;DHT22;66589;47.458;9.644;2023-02-04T04:11:37;6.20;97.40
38936;DHT22;66589;47.458;9.644;2023-02-04T04:14:03;6.20;97.20
38936;DHT22;66589;47.458;9.644;2023-02-04T04:16:28;6.20;97.20
38936;DHT22;66589;47.458;9.644;2023-02-04T04:18:54;6.20;97.20
38936;DHT22;66589;47.458;9.644;2023-02-04T04:21:20;6.30;97.30
38936;DHT22;66589;47.458;9.644;2023-02-04T04:23:46;6.30;97.10
38936;DHT22;66589;47.458;9.644;2023-02-04T04:26:11;6.30;96.80
38936;DHT22;66589;47.458;9.644;2023-02-04T04:28:37;6.20;97.00
38936;DHT22;66589;47.458;9.644;2023-02-04T04:31:03;6.20;97.20
38936;DHT22;66589;47.458;9.644;2023-02-04T04:33:29;6.20;97.10
38936;DHT22;66589;47.458;9.644;2023-02-04T04:35:54;6.20;97.70
38936;DHT22;66589;47.458;9.644;2023-02-04T04:38:20;6.30;97.30
38936;DHT22;66589;47.458;9.644;2023-02-04T04:40:46;6.40;97.40
38936;DHT22;66589;47.458;9.644;2023-02-04T04:43:11;6.40;97.10
38936;DHT22;66589;47.458;9.644;2023-02-04T04:45:37;6.40;97.00
38936;DHT22;66589;47.458;9.644;2023-02-04T04:48:03;6.40;97.10
38936;DHT22;66589;47.458;9.644;2023-02-04T04:50:29;6.40;96.90
38936;DHT22;66589;47.458;9.644;2023-02-04T04:52:54;6.30;97.10
38936;DHT22;66589;47.458;9.644;2023-02-04T04:55:20;6.30;97.20
38936;DHT22;66589;47.458;9.644;2023-02-04T04:57:46;6.30;97.50
38936;DHT22;66589;47.458;9.644;2023-02-04T05:00:15;6.20;97.80
38936;DHT22;66589;47.458;9.644;2023-02-04T05:02:41;6.20;98.10
38936;DHT22;66589;47.458;9.644;2023-02-04T05:05:08;6.20;98.10
38936;DHT22;66589;47.458;9.644;2023-02-04T05:07:34;6.10;98.30
38936;DHT22;66589;47.458;9.644;2023-02-04T05:09:59;6.10;98.90
38936;DHT22;66589;47.458;9.644;2023-02-04T05:12:25;6.10;98.50
38936;DHT22;66589;47.458;9.644;2023-02-04T05:14:51;6.20;98.60
38936;DHT22;66589;47.458;9.644;2023-02-04T05:17:16;6.20;98.40
38936;DHT22;66589;47.458;9.644;2023-02-04T05:19:42;6.20;98.50
38936;DHT22;66589;47.458;9.644;2023-02-04T05:22:08;6.30;98.10
38936;DHT22;66589;47.458;9.644;2023-02-04T05:24:33;6.30;98.30
38936;DHT22;66589;47.458;9.644;2023-02-04T05:26:59;6.20;98.30
38936;DHT22;66589;47.458;9.644;2023-02-04T05:29:25;6.30;98.60
38936;DHT22;66589;47.458;9.644;2023-02-04T05:31:50;6.30;98.50
38936;DHT22;66589;47.458;9.644;2023-02-04T05:34:16;6.30;98.40
38936;DHT22;66589;47.458;9.644;2023-02-04T05:36:42;6.40;98.10
38936;DHT22;66589;47.458;9.644;2023-02-04T05:39:07;6.50;97.70
38936;DHT22;66589;47.458;9.644;2023-02-04T05:41:33;6.50;97.50
38936;DHT22;66589;47.458;9.644;2023-02-04T05:43:59;6.60;97.20
38936;DHT22;66589;47.458;9.644;2023-02-04T05:46:24;6.60;97.10
38936;DHT22;66589;47.458;9.644;2023-02-04T05:48:50;6.60;97.00
38936;DHT22;66589;47.458;9.644;2023-02-04T05:51:17;6.50;97.40
38936;DHT22;66589;47.458;9.644;2023-02-04T05:53:42;6.40;97.80
38936;DHT22;66589;47.458;9.644;2023-02-04T05:56:08;6.30;98.50
38936;DHT22;66589;47.458;9.644;2023-02-04T05:58:34;6.30;98.90
38936;DHT22;66589;47.458;9.644;2023-02-04T06:01:00;6.30;98.50
38936;DHT22;66589;47.458;9.644;2023-02-04T06:03:26;6.30;98.60
38936;DHT22;66589;47.458;9.644;2023-02-04T06:05:52;6.30;98.30
38936;DHT22;66589;47.458;9.644;2023-02-04T06:08:18;6.30;98.50
38936;DHT22;66589;47.458;9.644;2023-02-04T06:10:43;6.30;98.70
38936;DHT22;66589;47.458;9.644;2023-02-04T06:13:09;6.30;98.80
38936;DHT22;66589;47.458;9.644;2023-02-04T06:15:35;6.20;99.10
38936;DHT22;66589;47.458;9.644;2023-02-04T06:18:00;6.30;99.20
38936;DHT22;66589;47.458;9.644;2023-02-04T06:20:26;6.30;99.10
38936;DHT22;66589;47.458;9.644;2023-02-04T06:22:52;6.40;98.70
38936;DHT22;66589;47.458;9.644;2023-02-04T06:25:19;6.40;98.40
38936;DHT22;66589;47.458;9.644;2023-02-04T06:27:45;6.60;97.90
38936;DHT22;66589;47.458;9.644;2023-02-04T06:30:11;6.60;97.70
38936;DHT22;66589;47.458;9.644;2023-02-04T06:32:37;6.60;97.70
38936;DHT22;66589;47.458;9.644;2023-02-04T06:35:03;6.50;98.00
38936;DHT22;66589;47.458;9.644;2023-02-04T06:37:29;6.40;98.30
38936;DHT22;66589;47.458;9.644;2023-02-04T06:39:54;6.50;98.20
38936;DHT22;66589;47.458;9.644;2023-02-04T06:42:22;6.50;98.30
38936;DHT22;66589;47.458;9.644;2023-02-04T06:44:48;6.60;97.80
38936;DHT22;66589;47.458;9.644;2023-02-04T06:47:14;6.60;97.70
38936;DHT22;66589;47.458;9.644;2023-02-04T06:49:39;6.60;97.80
38936;DHT22;66589;47.458;9.644;2023-02-04T06:52:05;6.50;97.60
38936;DHT22;66589;47.458;9.644;2023-02-04T06:54:31;6.50;97.70
38936;DHT22;66589;47.458;9.644;2023-02-04T06:56:56;6.40;97.80
38936;DHT22;66589;47.458;9.644;2023-02-04T06:59:28;6.30;97.90
38936;DHT22;66589;47.458;9.644;2023-02-04T07:01:57;6.20;98.60
38936;DHT22;66589;47.458;9.644;2023-02-04T07:04:22;6.10;98.70
38936;DHT22;66589;47.458;9.644;2023-02-04T07:06:48;6.10;99.10
38936;DHT22;66589;47.458;9.644;2023-02-04T07:09:13;6.00;99.30
38936;DHT22;66589;47.458;9.644;2023-02-04T07:11:39;6.00;99.40
38936;DHT22;66589;47.458;9.644;2023-02-04T07:14:05;6.10;99.20
38936;DHT22;66589;47.458;9.644;2023-02-04T07:16:30;6.10;99.30
38936;DHT22;66589;47.458;9.644;2023-02-04T07:18:56;6.10;99.20
38936;DHT22;66589;47.458;9.644;2023-02-04T07:21:22;6.20;99.00
38936;DHT22;66589;47.458;9.644;2023-02-04T07:23:47;6.20;98.90
38936;DHT22;66589;47.458;9.644;2023-02-04T07:26:13;6.20;99.00
38936;DHT22;66589;47.458;9.644;2023-02-04T07:28:39;6.30;99.10
38936;DHT22;66589;47.458;9.644;2023-02-04T07:31:05;6.30;98.90
38936;DHT22;66589;47.458;9.644;2023-02-04T07:33:31;6.30;98.80
38936;DHT22;66589;47.458;9.644;2023-02-04T07:35:57;6.40;98.50
38936;DHT22;66589;47.458;9.644;2023-02-04T07:38:22;6.50;98.30
38936;DHT22;66589;47.458;9.644;2023-02-04T07:40:48;6.50;98.20
38936;DHT22;66589;47.458;9.644;2023-02-04T07:43:14;6.50;98.20
38936;DHT22;66589;47.458;9.644;2023-02-04T07:45:40;6.50;98.00
38936;DHT22;66589;47.458;9.644;2023-02-04T07:48:05;6.50;98.10
38936;DHT22;66589;47.458;9.644;2023-02-04T07:50:32;6.40;97.90
38936;DHT22;66589;47.458;9.644;2023-02-04T07:52:57;6.30;98.40
38936;DHT22;66589;47.458;9.644;2023-02-04T07:55:23;6.20;98.80
38936;DHT22;66589;47.458;9.644;2023-02-04T07:57:49;6.20;99.60
38936;DHT22;66589;47.458;9.644;2023-02-04T08:00:15;6.30;99.60
38936;DHT22;66589;47.458;9.644;2023-02-04T08:02:41;6.40;99.60
38936;DHT22;66589;47.458;9.644;2023-02-04T08:05:07;6.50;99.30
38936;DHT22;66589;47.458;9.644;2023-02-04T08:07:33;6.60;99.10
38936;DHT22;66589;47.458;9.644;2023-02-04T08:09:58;6.50;98.90
38936;DHT22;66589;47.458;9.644;2023-02-04T08:12:24;6.60;98.90
38936;DHT22;66589;47.458;9.644;2023-02-04T08:14:51;6.60;98.90
38936;DHT22;66589;47.458;9.644;2023-02-04T08:17:17;6.70;98.90
38936;DHT22;66589;47.458;9.644;2023-02-04T08:19:43;6.70;98.90
38936;DHT22;66589;47.458;9.644;2023-02-04T08:22:08;6.80;98.70
38936;DHT22;66589;47.458;9.644;2023-02-04T08:24:36;6.80;98.50
38936;DHT22;66589;47.458;9.644;2023-02-04T08:27:01;6.90;98.80
38936;DHT22;66589;47.458;9.644;2023-02-04T08:29:27;6.90;98.70
38936;DHT22;66589;47.458;9.644;2023-02-04T08:31:53;7.00;98.80
38936;DHT22;66589;47.458;9.644;2023-02-04T08:34:19;7.10;98.70
38936;DHT22;66589;47.458;9.644;2023-02-04T08:36:44;7.10;98.40
38936;DHT22;66589;47.458;9.644;2023-02-04T08:39:10;7.20;98.10
38936;DHT22;66589;47.458;9.644;2023-02-04T08:41:37;7.30;97.90
38936;DHT22;66589;47.458;9.644;2023-02-04T08:44:02;7.40;98.00
38936;DHT22;66589;47.458;9.644;2023-02-04T08:46:28;7.50;97.80
38936;DHT22;66589;47.458;9.644;2023-02-04T08:48:54;7.50;97.40
38936;DHT22;66589;47.458;9.644;2023-02-04T08:51:21;7.60;97.50
38936;DHT22;66589;47.458;9.644;2023-02-04T08:53:47;7.70;97.40
38936;DHT22;66589;47.458;9.644;2023-02-04T08:56:13;7.70;97.10
38936;DHT22;66589;47.458;9.644;2023-02-04T08:58:42;7.70;96.30
38936;DHT22;66589;47.458;9.644;2023-02-04T09:01:08;7.60;96.60
38936;DHT22;66589;47.458;9.644;2023-02-04T09:03:36;7.60;97.00
38936;DHT22;66589;47.458;9.644;2023-02-04T09:06:02;7.50;97.00
38936;DHT22;66589;47.458;9.644;2023-02-04T09:08:28;7.50;97.30
38936;DHT22;66589;47.458;9.644;2023-02-04T09:10:53;7.50;97.00
38936;DHT22;66589;47.458;9.644;2023-02-04T09:13:19;7.50;97.20
38936;DHT22;66589;47.458;9.644;2023-02-04T09:15:45;7.50;97.20
38936;DHT22;66589;47.458;9.644;2023-02-04T09:18:10;7.70;97.50
38936;DHT22;66589;47.458;9.644;2023-02-04T09:20:42;7.90;97.30
38936;DHT22;66589;47.458;9.644;2023-02-04T09:23:08;8.00;96.10
38936;DHT22;66589;47.458;9.644;2023-02-04T09:25:37;8.10;96.20
38936;DHT22;66589;47.458;9.644;2023-02-04T09:28:03;8.00;95.90
38936;DHT22;66589;47.458;9.644;2023-02-04T09:30:29;8.10;96.20
38936;DHT22;66589;47.458;9.644;2023-02-04T09:32:55;8.20;95.90
38936;DHT22;66589;47.458;9.644;2023-02-04T09:35:20;8.40;95.70
38936;DHT22;66589;47.458;9.644;2023-02-04T09:37:46;8.50;95.20
38936;DHT22;66589;47.458;9.644;2023-02-04T09:40:16;8.70;94.80
38936;DHT22;66589;47.458;9.644;2023-02-04T09:42:43;8.70;94.60
38936;DHT22;66589;47.458;9.644;2023-02-04T09:45:26;8.80;94.50
38936;DHT22;66589;47.458;9.644;2023-02-04T09:47:53;9.00;94.30
38936;DHT22;66589;47.458;9.644;2023-02-04T09:50:21;9.20;93.60
38936;DHT22;66589;47.458;9.644;2023-02-04T09:52:50;9.40;92.30
38936;DHT22;66589;47.458;9.644;2023-02-04T09:55:18;9.60;92.30
38936;DHT22;66589;47.458;9.644;2023-02-04T09:57:45;9.70;92.00
38936;DHT22;66589;47.458;9.644;2023-02-04T10:00:23;9.90;90.80
38936;DHT22;66589;47.458;9.644;2023-02-04T10:02:49;10.20;90.80
38936;DHT22;66589;47.458;9.644;2023-02-04T10:05:29;10.20;90.20
38936;DHT22;66589;47.458;9.644;2023-02-04T10:07:55;10.10;88.50
38936;DHT22;66589;47.458;9.644;2023-02-04T10:10:23;10.10;89.90
38936;DHT22;66589;47.458;9.644;2023-02-04T10:12:54;10.40;89.10
38936;DHT22;66589;47.458;9.644;2023-02-04T10:15:21;10.60;88.30
38936;DHT22;66589;47.458;9.644;2023-02-04T10:17:51;10.90;86.40
38936;DHT22;66589;47.458;9.644;2023-02-04T10:20:17;10.90;85.40
38936;DHT22;66589;47.458;9.644;2023-02-04T10:22:48;10.90;84.10
38936;DHT22;66589;47.458;9.644;2023-02-04T10:25:16;10.90;83.80
38936;DHT22;66589;47.458;9.644;2023-02-04T10:30:22;10.90;83.50
38936;DHT22;66589;47.458;9.644;2023-02-04T10:32:48;10.90;83.20
38936;DHT22;66589;47.458;9.644;2023-02-04T10:35:16;10.90;82.80
38936;DHT22;66589;47.458;9.644;2023-02-04T10:37:42;10.80;83.00
38936;DHT22;66589;47.458;9.644;2023-02-04T10:42:52;10.50;82.50
38936;DHT22;66589;47.458;9.644;2023-02-04T10:45:25;10.60;83.40
38936;DHT22;66589;47.458;9.644;2023-02-04T10:47:53;10.60;83.60
38936;DHT22;66589;47.458;9.644;2023-02-04T10:50:23;10.70;83.00
38936;DHT22;66589;47.458;9.644;2023-02-04T10:52:52;10.70;81.80
38936;DHT22;66589;47.458;9.644;2023-02-04T10:55:21;10.80;81.10
38936;DHT22;66589;47.458;9.644;2023-02-04T10:57:50;10.80;81.40
38936;DHT22;66589;47.458;9.644;2023-02-04T11:00:22;11.00;82.30
38936;DHT22;66589;47.458;9.644;2023-02-04T11:03:06;11.00;81.30
38936;DHT22;66589;47.458;9.644;2023-02-04T11:05:33;11.20;81.30
38936;DHT22;66589;47.458;9.644;2023-02-04T11:08:00;11.30;79.70
38936;DHT22;66589;47.458;9.644;2023-02-04T11:10:33;11.30;78.30
38936;DHT22;66589;47.458;9.644;2023-02-04T11:13:04;11.30;80.00
38936;DHT22;66589;47.458;9.644;2023-02-04T11:15:53;11.20;78.30
38936;DHT22;66589;47.458;9.644;2023-02-04T11:20:49;11.00;78.20
38936;DHT22;66589;47.458;9.644;2023-02-04T11:26:07;11.00;78.00
38936;DHT22;66589;47.458;9.644;2023-02-04T11:28:49;11.10;78.90
38936;DHT22;66589;47.458;9.644;2023-02-04T11:33:44;11.10;79.30
38936;DHT22;66589;47.458;9.644;2023-02-04T11:36:12;11.20;78.40
38936;DHT22;66589;47.458;9.644;2023-02-04T11:38:46;11.40;76.40
38936;DHT22;66589;47.458;9.644;2023-02-04T11:41:27;11.50;78.10
38936;DHT22;66589;47.458;9.644;2023-02-04T11:43:58;11.90;77.00
38936;DHT22;66589;47.458;9.644;2023-02-04T11:46:26;12.20;75.60
38936;DHT22;66589;47.458;9.644;2023-02-04T11:48:57;12.30;75.10
38936;DHT22;66589;47.458;9.644;2023-02-04T11:51:31;12.20;74.80
38936;DHT22;66589;47.458;9.644;2023-02-04T11:53:57;12.10;75.00
38936;DHT22;66589;47.458;9.644;2023-02-04T11:56:27;12.10;72.40
38936;DHT22;66589;47.458;9.644;2023-02-04T11:58:55;12.00;74.10
38936;DHT22;66589;47.458;9.644;2023-02-04T12:01:30;12.00;72.80
38936;DHT22;66589;47.458;9.644;2023-02-04T12:03:58;12.10;74.20
38936;DHT22;66589;47.458;9.644;2023-02-04T12:06:27;12.30;71.50
38936;DHT22;66589;47.458;9.644;2023-02-04T12:11:51;12.50;71.90
38936;DHT22;66589;47.458;9.644;2023-02-04T12:14:17;12.50;73.50
38936;DHT22;66589;47.458;9.644;2023-02-04T12:16:50;12.40;72.10
38936;DHT22;66589;47.458;9.644;2023-02-04T12:19:16;12.40;72.20
38936;DHT22;66589;47.458;9.644;2023-02-04T12:21:42;12.50;73.80
38936;DHT22;66589;47.458;9.644;2023-02-04T12:24:08;12.50;73.50
38936;DHT22;66589;47.458;9.644;2023-02-04T12:26:34;12.70;71.80
38936;DHT22;66589;47.458;9.644;2023-02-04T12:29:00;12.60;71.90
38936;DHT22;66589;47.458;9.644;2023-02-04T12:31:31;12.80;73.20
38936;DHT22;66589;47.458;9.644;2023-02-04T12:33:58;13.00;73.70
38936;DHT22;66589;47.458;9.644;2023-02-04T12:36:24;12.90;71.80
38936;DHT22;66589;47.458;9.644;2023-02-04T12:38:52;12.80;72.70
38936;DHT22;66589;47.458;9.644;2023-02-04T12:41:18;12.60;70.50
38936;DHT22;66589;47.458;9.644;2023-02-04T12:43:45;12.50;69.60
38936;DHT22;66589;47.458;9.644;2023-02-04T12:46:11;12.20;71.50
38936;DHT22;66589;47.458;9.644;2023-02-04T12:48:36;12.00;72.30
38936;DHT22;66589;47.458;9.644;2023-02-04T12:51:06;11.90;72.50
38936;DHT22;66589;47.458;9.644;2023-02-04T12:53:31;11.90;74.10
38936;DHT22;66589;47.458;9.644;2023-02-04T12:55:57;11.80;74.00
38936;DHT22;66589;47.458;9.644;2023-02-04T12:58:23;11.70;73.80
38936;DHT22;66589;47.458;9.644;2023-02-04T13:00:49;11.60;74.90
38936;DHT22;66589;47.458;9.644;2023-02-04T13:03:14;11.40;74.60
38936;DHT22;66589;47.458;9.644;2023-02-04T13:05:40;11.40;75.30
38936;DHT22;66589;47.458;9.644;2023-02-04T13:08:06;11.30;75.50
38936;DHT22;66589;47.458;9.644;2023-02-04T13:10:32;11.20;75.20
38936;DHT22;66589;47.458;9.644;2023-02-04T13:12:57;11.20;75.80
38936;DHT22;66589;47.458;9.644;2023-02-04T13:15:25;11.20;75.60
38936;DHT22;66589;47.458;9.644;2023-02-04T13:17:51;11.40;74.60
38936;DHT22;66589;47.458;9.644;2023-02-04T13:20:17;11.50;75.10
38936;DHT22;66589;47.458;9.644;2023-02-04T13:22:43;11.60;74.30
38936;DHT22;66589;47.458;9.644;2023-02-04T13:25:09;11.60;74.20
38936;DHT22;66589;47.458;9.644;2023-02-04T13:27:36;11.50;75.40
38936;DHT22;66589;47.458;9.644;2023-02-04T13:30:04;11.40;73.50
38936;DHT22;66589;47.458;9.644;2023-02-04T13:32:29;11.40;74.20
38936;DHT22;66589;47.458;9.644;2023-02-04T13:34:55;11.40;75.10
38936;DHT22;66589;47.458;9.644;2023-02-04T13:37:21;11.30;75.30
38936;DHT22;66589;47.458;9.644;2023-02-04T13:39:46;11.30;75.70
38936;DHT22;66589;47.458;9.644;2023-02-04T13:42:12;11.20;74.80
38936;DHT22;66589;47.458;9.644;2023-02-04T13:44:38;11.20;74.10
38936;DHT22;66589;47.458;9.644;2023-02-04T13:47:04;11.20;74.70
38936;DHT22;66589;47.458;9.644;2023-02-04T13:49:29;11.20;74.80
38936;DHT22;66589;47.458;9.644;2023-02-04T13:51:55;11.00;75.70
38936;DHT22;66589;47.458;9.644;2023-02-04T13:54:20;10.80;76.40
38936;DHT22;66589;47.458;9.644;2023-02-04T13:56:46;10.60;78.30
38936;DHT22;66589;47.458;9.644;2023-02-04T13:59:12;10.50;77.50
38936;DHT22;66589;47.458;9.644;2023-02-04T14:01:37;10.20;78.50
38936;DHT22;66589;47.458;9.644;2023-02-04T14:04:03;10.10;78.60
38936;DHT22;66589;47.458;9.644;2023-02-04T14:06:29;10.00;78.90
38936;DHT22;66589;47.458;9.644;2023-02-04T14:09:01;10.00;79.90
38936;DHT22;66589;47.458;9.644;2023-02-04T14:11:27;9.90;79.00
38936;DHT22;66589;47.458;9.644;2023-02-04T14:13:53;9.90;80.10
38936;DHT22;66589;47.458;9.644;2023-02-04T14:16:18;9.90;80.00
38936;DHT22;66589;47.458;9.644;2023-02-04T14:18:44;9.90;80.40
38936;DHT22;66589;47.458;9.644;2023-02-04T14:21:10;10.00;80.00
38936;DHT22;66589;47.458;9.644;2023-02-04T14:23:36;10.00;80.40
38936;DHT22;66589;47.458;9.644;2023-02-04T14:26:02;9.90;80.30
38936;DHT22;66589;47.458;9.644;2023-02-04T14:28:27;9.90;80.50
38936;DHT22;66589;47.458;9.644;2023-02-04T14:30:53;9.90;79.30
38936;DHT22;66589;47.458;9.644;2023-02-04T14:33:21;9.90;79.90
38936;DHT22;66589;47.458;9.644;2023-02-04T14:35:47;9.80;80.60
38936;DHT22;66589;47.458;9.644;2023-02-04T14:38:13;9.80;80.20
38936;DHT22;66589;47.458;9.644;2023-02-04T14:40:41;9.70;80.20
38936;DHT22;66589;47.458;9.644;2023-02-04T14:43:07;9.70;81.10
38936;DHT22;66589;47.458;9.644;2023-02-04T14:45:39;9.60;82.10
38936;DHT22;66589;47.458;9.644;2023-02-04T14:48:05;9.60;82.10
38936;DHT22;66589;47.458;9.644;2023-02-04T14:50:31;9.50;82.20
38936;DHT22;66589;47.458;9.644;2023-02-04T14:52:57;9.50;82.60
38936;DHT22;66589;47.458;9.644;2023-02-04T14:55:23;9.30;83.10
38936;DHT22;66589;47.458;9.644;2023-02-04T14:57:49;9.30;83.50
38936;DHT22;66589;47.458;9.644;2023-02-04T15:00:15;9.20;83.60
38936;DHT22;66589;47.458;9.644;2023-02-04T15:02:41;9.20;83.90
38936;DHT22;66589;47.458;9.644;2023-02-04T15:05:08;9.30;83.80
38936;DHT22;66589;47.458;9.644;2023-02-04T15:07:34;9.30;83.50
38936;DHT22;66589;47.458;9.644;2023-02-04T15:10:00;9.30;82.50
38936;DHT22;66589;47.458;9.644;2023-02-04T15:12:25;9.30;82.00
38936;DHT22;66589;47.458;9.644;2023-02-04T15:14:51;9.30;82.60
38936;DHT22;66589;47.458;9.644;2023-02-04T15:17:17;9.30;82.80
38936;DHT22;66589;47.458;9.644;2023-02-04T15:19:43;9.30;82.30
38936;DHT22;66589;47.458;9.644;2023-02-04T15:22:09;9.20;82.00
38936;DHT22;66589;47.458;9.644;2023-02-04T15:24:35;9.20;82.40
38936;DHT22;66589;47.458;9.644;2023-02-04T15:27:00;9.20;83.30
38936;DHT22;66589;47.458;9.644;2023-02-04T15:29:26;9.10;83.00
38936;DHT22;66589;47.458;9.644;2023-02-04T15:31:52;9.10;83.40
38936;DHT22;66589;47.458;9.644;2023-02-04T15:34:17;9.10;83.30
38936;DHT22;66589;47.458;9.644;2023-02-04T15:36:43;9.10;83.40
38936;DHT22;66589;47.458;9.644;2023-02-04T15:39:09;9.10;83.20
38936;DHT22;66589;47.458;9.644;2023-02-04T15:41:34;9.10;83.00
38936;DHT22;66589;47.458;9.644;2023-02-04T15:44:00;9.10;82.80
38936;DHT22;66589;47.458;9.644;2023-02-04T15:46:26;9.10;83.10
38936;DHT22;66589;47.458;9.644;2023-02-04T15:48:51;9.00;83.20
38936;DHT22;66589;47.458;9.644;2023-02-04T15:51:17;9.10;82.90
38936;DHT22;66589;47.458;9.644;2023-02-04T15:53:43;9.10;82.50
38936;DHT22;66589;47.458;9.644;2023-02-04T15:56:09;9.10;82.60
38936;DHT22;66589;47.458;9.644;2023-02-04T15:58:35;9.10;82.90